createdAt,value
2023-01-27T00:01:51.892Z,101696.47
2023-01-27T00:04:18.430Z,101685.81
2023-01-27T00:06:44.953Z,101692.75
2023-01-27T00:09:12.017Z,101688.19
2023-01-27T00:11:57.063Z,101689.00
2023-01-27T00:14:23.690Z,101685.81
2023-01-27T00:16:50.201Z,101693.03
2023-01-27T00:19:19.855Z,101691.41
2023-01-27T00:22:05.435Z,101685.84
2023-01-27T00:24:37.662Z,101676.47
2023-01-27T00:27:05.368Z,101684.75
2023-01-27T00:29:31.957Z,101684.75
2023-01-27T00:32:18.830Z,101675.66
2023-01-27T00:34:45.387Z,101677.00
2023-01-27T00:37:12.139Z,101682.59
2023-01-27T00:39:38.757Z,101678.34
2023-01-27T00:42:05.634Z,101687.16
2023-01-27T00:44:35.303Z,101678.88
2023-01-27T00:47:01.816Z,101689.28
2023-01-27T00:49:28.369Z,101688.75
2023-01-27T00:51:57.718Z,101689.00
2023-01-27T00:54:24.224Z,101688.19
2023-01-27T00:56:50.763Z,101690.09
2023-01-27T00:59:17.275Z,101689.53
2023-01-27T01:01:45.022Z,101692.50
2023-01-27T01:04:11.953Z,101692.50
2023-01-27T01:06:38.478Z,101698.38
2023-01-27T01:09:04.962Z,101691.69
2023-01-27T01:11:31.566Z,101698.63
2023-01-27T01:13:58.193Z,101704.50
2023-01-27T01:16:25.307Z,101705.06
2023-01-27T01:18:52.308Z,101700.50
2023-01-27T01:21:20.103Z,101697.06
2023-01-27T01:23:46.664Z,101694.41
2023-01-27T01:26:15.165Z,101699.72
2023-01-27T01:28:41.983Z,101697.59
2023-01-27T01:31:11.303Z,101701.38
2023-01-27T01:33:38.276Z,101702.72
2023-01-27T01:36:12.947Z,101708.31
2023-01-27T01:38:39.755Z,101699.81
2023-01-27T01:41:07.335Z,101709.13
2023-01-27T01:43:34.208Z,101702.47
2023-01-27T01:46:01.610Z,101706.47
2023-01-27T01:48:42.509Z,101712.09
2023-01-27T01:51:13.642Z,101708.06
2023-01-27T01:53:48.382Z,101709.13
2023-01-27T01:56:18.789Z,101716.88
2023-01-27T01:58:45.719Z,101713.16
2023-01-27T02:01:13.022Z,101719.06
2023-01-27T02:03:41.443Z,101716.38
2023-01-27T02:06:08.116Z,101720.66
2023-01-27T02:08:40.189Z,101720.66
2023-01-27T02:11:08.355Z,101723.56
2023-01-27T02:13:38.375Z,101715.31
2023-01-27T02:16:05.800Z,101710.50
2023-01-27T02:18:32.754Z,101709.47
2023-01-27T02:20:59.312Z,101716.66
2023-01-27T02:23:49.296Z,101708.41
2023-01-27T02:26:31.281Z,101708.13
2023-01-27T02:29:05.800Z,101715.31
2023-01-27T02:31:32.808Z,101712.13
2023-01-27T02:34:05.459Z,101712.41
2023-01-27T02:36:35.760Z,101726.28
2023-01-27T02:39:03.419Z,101719.59
2023-01-27T02:42:06.144Z,101720.69
2023-01-27T02:44:33.146Z,101719.09
2023-01-27T02:46:59.829Z,101718.81
2023-01-27T02:49:26.439Z,101719.63
2023-01-27T02:51:53.006Z,101726.81
2023-01-27T02:54:19.625Z,101726.56
2023-01-27T02:56:46.542Z,101725.50
2023-01-27T02:59:15.635Z,101734.84
2023-01-27T03:01:42.230Z,101740.16
2023-01-27T03:04:11.794Z,101742.06
2023-01-27T03:06:38.916Z,101740.47
2023-01-27T03:09:05.813Z,101742.31
2023-01-27T03:11:51.037Z,101741.00
2023-01-27T03:14:18.258Z,101751.91
2023-01-27T03:17:05.826Z,101741.00
2023-01-27T03:19:32.472Z,101739.91
2023-01-27T03:22:01.860Z,101737.22
2023-01-27T03:24:29.983Z,101728.47
2023-01-27T03:27:00.200Z,101728.16
2023-01-27T03:29:55.238Z,101737.25
2023-01-27T03:32:27.442Z,101737.50
2023-01-27T03:35:15.659Z,101738.31
2023-01-27T03:38:03.567Z,101732.16
2023-01-27T03:40:48.866Z,101730.28
2023-01-27T03:43:34.186Z,101743.09
2023-01-27T03:46:19.345Z,101739.09
2023-01-27T03:48:50.820Z,101740.72
2023-01-27T03:51:18.337Z,101739.66
2023-01-27T03:53:45.114Z,101730.81
2023-01-27T03:56:12.030Z,101736.72
2023-01-27T03:58:38.861Z,101738.31
2023-01-27T04:01:09.049Z,101730.31
2023-01-27T04:03:54.528Z,101735.41
2023-01-27T04:06:42.197Z,101733.50
2023-01-27T04:09:09.822Z,101736.19
2023-01-27T04:11:55.334Z,101727.63
2023-01-27T04:14:29.571Z,101731.63
2023-01-27T04:16:58.642Z,101727.38
2023-01-27T04:19:25.886Z,101737.00
2023-01-27T04:21:53.481Z,101744.75
2023-01-27T04:24:24.287Z,101744.47
2023-01-27T04:26:55.305Z,101744.47
2023-01-27T04:29:22.526Z,101744.72
2023-01-27T04:31:49.363Z,101750.59
2023-01-27T04:34:16.403Z,101750.09
2023-01-27T04:36:43.134Z,101749.81
2023-01-27T04:39:09.973Z,101759.94
2023-01-27T04:41:37.148Z,101751.44
2023-01-27T04:44:04.643Z,101752.47
2023-01-27T04:46:31.358Z,101761.31
2023-01-27T04:48:57.932Z,101753.28
2023-01-27T04:51:24.614Z,101749.56
2023-01-27T04:53:51.191Z,101765.56
2023-01-27T04:56:27.300Z,101760.22
2023-01-27T04:58:54.826Z,101761.84
2023-01-27T05:01:21.636Z,101762.66
2023-01-27T05:03:48.173Z,101762.66
2023-01-27T05:06:15.636Z,101770.66
2023-01-27T05:08:42.189Z,101767.16
2023-01-27T05:11:09.201Z,101771.72
2023-01-27T05:13:35.749Z,101777.84
2023-01-27T05:16:11.648Z,101769.31
2023-01-27T05:18:38.754Z,101779.47
2023-01-27T05:21:06.382Z,101779.47
2023-01-27T05:23:35.652Z,101786.66
2023-01-27T05:26:22.905Z,101794.91
2023-01-27T05:28:50.808Z,101787.97
2023-01-27T05:31:20.009Z,101787.72
2023-01-27T05:33:47.809Z,101800.25
2023-01-27T05:36:17.362Z,101798.41
2023-01-27T05:38:44.092Z,101804.25
2023-01-27T05:41:11.917Z,101798.66
2023-01-27T05:43:40.675Z,101801.31
2023-01-27T05:46:08.635Z,101808.00
2023-01-27T05:48:36.864Z,101808.81
2023-01-27T05:51:04.746Z,101805.59
2023-01-27T05:53:31.801Z,101805.34
2023-01-27T05:55:58.756Z,101799.75
2023-01-27T05:58:25.381Z,101810.13
2023-01-27T06:00:53.051Z,101807.22
2023-01-27T06:03:20.131Z,101813.88
2023-01-27T06:05:57.069Z,101810.91
2023-01-27T06:08:25.049Z,101813.06
2023-01-27T06:10:52.598Z,101814.38
2023-01-27T06:13:21.288Z,101813.84
2023-01-27T06:15:48.205Z,101815.19
2023-01-27T06:18:16.063Z,101810.91
2023-01-27T06:20:43.287Z,101806.13
2023-01-27T06:23:10.940Z,101811.47
2023-01-27T06:25:42.333Z,101808.78
2023-01-27T06:28:10.793Z,101808.22
2023-01-27T06:30:39.822Z,101815.19
2023-01-27T06:33:06.646Z,101812.53
2023-01-27T06:35:35.121Z,101810.66
2023-01-27T06:38:03.491Z,101811.72
2023-01-27T06:40:31.346Z,101814.38
2023-01-27T06:42:58.131Z,101818.13
2023-01-27T06:45:25.205Z,101809.56
2023-01-27T06:47:56.894Z,101825.88
2023-01-27T06:50:24.653Z,101826.63
2023-01-27T06:52:51.936Z,101829.03
2023-01-27T06:55:19.486Z,101827.47
2023-01-27T06:57:48.384Z,101832.03
2023-01-27T07:00:16.685Z,101834.69
2023-01-27T07:02:44.004Z,101829.66
2023-01-27T07:05:11.210Z,101826.72
2023-01-27T07:07:38.555Z,101836.06
2023-01-27T07:10:06.380Z,101831.00
2023-01-27T07:12:35.759Z,101829.97
2023-01-27T07:15:02.450Z,101825.19
2023-01-27T07:17:29.153Z,101843.91
2023-01-27T07:19:55.654Z,101835.59
2023-01-27T07:22:22.195Z,101847.38
2023-01-27T07:24:49.030Z,101849.00
2023-01-27T07:27:15.588Z,101849.56
2023-01-27T07:29:42.103Z,101847.19
2023-01-27T07:32:08.694Z,101847.72
2023-01-27T07:34:35.184Z,101848.81
2023-01-27T07:37:01.844Z,101849.09
2023-01-27T07:39:28.391Z,101852.28
2023-01-27T07:41:54.978Z,101859.53
2023-01-27T07:44:21.680Z,101852.31
2023-01-27T07:46:48.216Z,101865.94
2023-01-27T07:49:14.730Z,101858.50
2023-01-27T07:51:41.259Z,101859.56
2023-01-27T07:54:07.768Z,101858.22
2023-01-27T07:56:36.335Z,101852.91
2023-01-27T07:59:03.569Z,101865.75
2023-01-27T08:01:30.534Z,101866.81
2023-01-27T08:03:57.395Z,101866.31
2023-01-27T08:06:23.937Z,101865.25
2023-01-27T08:08:50.563Z,101867.41
2023-01-27T08:11:17.225Z,101867.69
2023-01-27T08:13:43.904Z,101858.84
2023-01-27T08:16:12.779Z,101870.38
2023-01-27T08:18:39.289Z,101871.44
2023-01-27T08:21:09.327Z,101870.66
2023-01-27T08:23:36.054Z,101870.66
2023-01-27T08:26:05.008Z,101871.22
2023-01-27T08:28:33.377Z,101874.16
2023-01-27T08:31:15.149Z,101877.91
2023-01-27T08:33:43.056Z,101882.72
2023-01-27T08:36:17.149Z,101878.16
2023-01-27T08:38:44.892Z,101871.75
2023-01-27T08:41:14.011Z,101883.53
2023-01-27T08:43:40.904Z,101889.94
2023-01-27T08:46:08.420Z,101888.34
2023-01-27T08:48:35.548Z,101890.75
2023-01-27T08:51:04.197Z,101895.28
2023-01-27T08:53:31.348Z,101894.50
2023-01-27T08:55:58.949Z,101893.69
2023-01-27T08:58:25.640Z,101890.75
2023-01-27T09:00:52.147Z,101892.63
2023-01-27T09:03:18.669Z,101903.06
2023-01-27T09:05:45.262Z,101901.16
2023-01-27T09:08:11.849Z,101897.44
2023-01-27T09:10:41.973Z,101902.00
2023-01-27T09:13:08.853Z,101896.63
2023-01-27T09:15:36.576Z,101910.53
2023-01-27T09:18:06.274Z,101902.78
2023-01-27T09:20:34.373Z,101908.13
2023-01-27T09:23:02.252Z,101915.63
2023-01-27T09:25:28.783Z,101920.72
2023-01-27T09:27:56.356Z,101919.38
2023-01-27T09:30:23.702Z,101914.28
2023-01-27T09:32:50.333Z,101919.91
2023-01-27T09:35:17.339Z,101928.19
2023-01-27T09:37:48.081Z,101922.56
2023-01-27T09:40:24.957Z,101931.13
2023-01-27T09:43:00.188Z,101933.56
2023-01-27T09:45:38.561Z,101936.50
2023-01-27T09:48:14.043Z,101932.72
2023-01-27T09:50:45.533Z,101942.38
2023-01-27T09:53:32.618Z,101939.16
2023-01-27T09:56:11.412Z,101943.69
2023-01-27T09:59:05.067Z,101939.97
2023-01-27T10:01:40.778Z,101944.78
2023-01-27T10:04:13.856Z,101939.41
2023-01-27T10:07:10.679Z,101937.56
2023-01-27T10:09:49.583Z,101945.34
2023-01-27T10:12:34.866Z,101937.56
2023-01-27T10:15:13.696Z,101943.44
2023-01-27T10:18:02.658Z,101943.44
2023-01-27T10:20:42.839Z,101946.13
2023-01-27T10:23:33.956Z,101949.06
2023-01-27T10:26:12.347Z,101944.78
2023-01-27T10:28:41.087Z,101949.59
2023-01-27T10:31:27.261Z,101949.59
2023-01-27T10:34:00.636Z,101938.59
2023-01-27T10:36:47.031Z,101947.72
2023-01-27T10:39:44.261Z,101947.97
2023-01-27T10:42:19.865Z,101947.19
2023-01-27T10:45:07.172Z,101949.31
2023-01-27T10:48:10.410Z,101954.66
2023-01-27T10:50:43.424Z,101947.97
2023-01-27T10:53:17.125Z,101952.53
2023-01-27T10:55:50.084Z,101953.31
2023-01-27T10:58:42.619Z,101949.03
2023-01-27T11:01:21.051Z,101946.09
2023-01-27T11:04:11.022Z,101945.53
2023-01-27T11:06:40.473Z,101943.94
2023-01-27T11:09:32.685Z,101955.19
2023-01-27T11:12:02.829Z,101946.59
2023-01-27T11:14:32.325Z,101946.59
2023-01-27T11:17:13.021Z,101949.78
2023-01-27T11:19:59.804Z,101951.94
2023-01-27T11:22:38.051Z,101952.47
2023-01-27T11:25:17.705Z,101950.84
2023-01-27T11:27:59.944Z,101947.09
2023-01-27T11:30:33.701Z,101950.84
2023-01-27T11:33:13.932Z,101949.75
2023-01-27T11:35:40.468Z,101943.84
2023-01-27T11:38:15.717Z,101949.97
2023-01-27T11:40:43.071Z,101947.53
2023-01-27T11:43:15.778Z,101945.69
2023-01-27T11:45:42.397Z,101945.94
2023-01-27T11:48:13.931Z,101947.00
2023-01-27T11:50:41.736Z,101943.50
2023-01-27T11:53:17.543Z,101937.59
2023-01-27T11:55:48.895Z,101939.16
2023-01-27T11:58:36.829Z,101942.63
2023-01-27T12:01:06.543Z,101948.81
2023-01-27T12:03:49.756Z,101933.00
2023-01-27T12:06:21.843Z,101943.75
2023-01-27T12:08:49.737Z,101947.00
2023-01-27T12:11:18.951Z,101941.38
2023-01-27T12:13:50.377Z,101949.97
2023-01-27T12:16:17.252Z,101949.13
2023-01-27T12:18:56.649Z,101941.09
2023-01-27T12:21:35.186Z,101945.66
2023-01-27T12:24:02.165Z,101949.66
2023-01-27T12:26:37.441Z,101949.09
2023-01-27T12:29:07.362Z,101940.53
2023-01-27T12:31:45.014Z,101939.72
2023-01-27T12:34:36.507Z,101950.22
2023-01-27T12:37:04.740Z,101942.97
2023-01-27T12:39:40.728Z,101946.75
2023-01-27T12:42:33.146Z,101935.75
2023-01-27T12:44:59.768Z,101946.47
2023-01-27T12:47:28.389Z,101944.09
2023-01-27T12:50:21.062Z,101939.00
2023-01-27T12:52:56.878Z,101937.66
2023-01-27T12:55:57.264Z,101947.34
2023-01-27T12:58:35.658Z,101943.88
2023-01-27T13:01:18.295Z,101944.41
2023-01-27T13:03:44.989Z,101945.50
2023-01-27T13:06:15.723Z,101942.56
2023-01-27T13:08:43.233Z,101946.56
2023-01-27T13:11:10.071Z,101952.47
2023-01-27T13:13:36.883Z,101960.00
2023-01-27T13:16:29.808Z,101957.31
2023-01-27T13:18:59.559Z,101959.47
2023-01-27T13:21:32.801Z,101953.56
2023-01-27T13:24:00.588Z,101954.63
2023-01-27T13:26:29.543Z,101945.00
2023-01-27T13:29:14.809Z,101953.06
2023-01-27T13:32:14.389Z,101948.22
2023-01-27T13:35:01.357Z,101966.19
2023-01-27T13:37:56.842Z,101959.25
2023-01-27T13:40:37.649Z,101965.38
2023-01-27T13:43:23.984Z,101963.00
2023-01-27T13:45:55.886Z,101959.50
2023-01-27T13:48:51.078Z,101965.13
2023-01-27T13:51:20.873Z,101968.06
2023-01-27T13:53:49.077Z,101968.34
2023-01-27T13:56:33.721Z,101969.66
2023-01-27T13:59:38.261Z,101961.09
2023-01-27T14:02:35.771Z,101960.84
2023-01-27T14:05:25.698Z,101972.09
2023-01-27T14:08:13.345Z,101979.34
2023-01-27T14:10:58.768Z,101973.44
2023-01-27T14:13:41.106Z,101975.06
2023-01-27T14:16:28.478Z,101981.75
2023-01-27T14:19:02.414Z,101981.47
2023-01-27T14:21:44.823Z,101987.63
2023-01-27T14:24:39.840Z,101991.41
2023-01-27T14:27:18.520Z,101988.16
2023-01-27T14:29:59.289Z,101985.22
2023-01-27T14:32:32.400Z,101984.94
2023-01-27T14:35:15.474Z,101987.38
2023-01-27T14:38:10.906Z,101997.53
2023-01-27T14:41:17.978Z,101993.25
2023-01-27T14:43:53.964Z,101987.63
2023-01-27T14:47:01.236Z,101995.41
2023-01-27T14:49:47.641Z,101994.59
2023-01-27T14:52:27.465Z,102000.75
2023-01-27T14:55:22.314Z,102002.38
2023-01-27T14:58:08.235Z,102001.03
2023-01-27T15:00:59.690Z,102008.81
2023-01-27T15:03:35.839Z,102002.38
2023-01-27T15:06:05.382Z,102014.16
2023-01-27T15:08:43.163Z,102009.31
2023-01-27T15:11:31.071Z,102011.19
2023-01-27T15:14:36.593Z,102011.50
2023-01-27T15:17:27.726Z,102014.16
2023-01-27T15:20:13.414Z,102014.44
2023-01-27T15:23:07.712Z,102014.16
2023-01-27T15:25:37.011Z,102009.34
2023-01-27T15:28:04.904Z,102024.63
2023-01-27T15:30:37.368Z,102021.41
2023-01-27T15:33:42.203Z,102021.66
2023-01-27T15:36:36.425Z,102032.38
2023-01-27T15:39:20.045Z,102038.81
2023-01-27T15:42:01.999Z,102035.63
2023-01-27T15:44:34.134Z,102037.22
2023-01-27T15:47:13.275Z,102044.44
2023-01-27T15:49:43.001Z,102045.25
2023-01-27T15:52:26.373Z,102047.94
2023-01-27T15:54:53.907Z,102058.09
2023-01-27T15:57:25.669Z,102066.13
2023-01-27T15:59:59.185Z,102066.97
2023-01-27T16:02:30.798Z,102070.44
2023-01-27T16:05:18.201Z,102072.88
2023-01-27T16:07:49.204Z,102081.44
2023-01-27T16:10:17.302Z,102065.88
2023-01-27T16:12:47.943Z,102069.13
2023-01-27T16:15:20.615Z,102072.31
2023-01-27T16:17:59.539Z,102077.41
2023-01-27T16:20:31.724Z,102077.94
2023-01-27T16:23:02.526Z,102074.47
2023-01-27T16:25:39.323Z,102073.66
2023-01-27T16:28:16.493Z,102067.22
2023-01-27T16:30:48.834Z,102068.84
2023-01-27T16:33:19.597Z,102073.91
2023-01-27T16:35:54.585Z,102077.94
2023-01-27T16:38:25.666Z,102076.34
2023-01-27T16:40:53.110Z,102076.34
2023-01-27T16:43:27.470Z,102079.00
2023-01-27T16:45:55.564Z,102082.25
2023-01-27T16:48:29.521Z,102078.75
2023-01-27T16:51:07.928Z,102089.47
2023-01-27T16:53:34.543Z,102091.34
2023-01-27T16:56:06.151Z,102094.00
2023-01-27T16:58:45.483Z,102094.56
2023-01-27T17:01:27.281Z,102093.50
2023-01-27T17:04:00.638Z,102091.63
2023-01-27T17:06:30.040Z,102097.78
2023-01-27T17:08:56.661Z,102094.00
2023-01-27T17:11:26.156Z,102099.38
2023-01-27T17:14:03.885Z,102100.44
2023-01-27T17:16:35.886Z,102097.78
2023-01-27T17:19:06.848Z,102105.28
2023-01-27T17:21:37.282Z,102100.44
2023-01-27T17:24:25.924Z,102101.78
2023-01-27T17:27:13.160Z,102106.34
2023-01-27T17:29:43.026Z,102094.56
2023-01-27T17:32:23.043Z,102099.94
2023-01-27T17:34:52.481Z,102097.78
2023-01-27T17:37:20.877Z,102106.34
2023-01-27T17:39:52.517Z,102105.00
2023-01-27T17:42:19.529Z,102103.13
2023-01-27T17:44:47.330Z,102098.31
2023-01-27T17:47:15.850Z,102101.53
2023-01-27T17:49:43.021Z,102102.88
2023-01-27T17:52:11.812Z,102114.66
2023-01-27T17:54:39.374Z,102115.75
2023-01-27T17:57:21.594Z,102118.41
2023-01-27T18:00:09.781Z,102130.47
2023-01-27T18:02:46.437Z,102134.19
2023-01-27T18:05:21.990Z,102135.56
2023-01-27T18:07:48.699Z,102130.22
2023-01-27T18:10:28.297Z,102139.56
2023-01-27T18:12:55.043Z,102144.66
2023-01-27T18:15:36.850Z,102142.25
2023-01-27T18:18:06.439Z,102152.44
2023-01-27T18:20:36.270Z,102154.59
2023-01-27T18:23:07.948Z,102153.25
2023-01-27T18:25:34.744Z,102152.69
2023-01-27T18:28:01.292Z,102161.28
2023-01-27T18:30:27.920Z,102154.81
2023-01-27T18:33:02.072Z,102164.72
2023-01-27T18:35:31.191Z,102159.38
2023-01-27T18:37:59.527Z,102165.50
2023-01-27T18:40:29.587Z,102166.59
2023-01-27T18:42:56.784Z,102167.66
2023-01-27T18:45:24.280Z,102171.94
2023-01-27T18:47:50.813Z,102175.97
2023-01-27T18:50:22.311Z,102180.81
2023-01-27T18:52:50.119Z,102181.06
2023-01-27T18:55:26.368Z,102185.06
2023-01-27T18:57:55.217Z,102187.75
2023-01-27T19:00:24.904Z,102182.09
2023-01-27T19:02:53.766Z,102183.47
2023-01-27T19:05:22.616Z,102186.66
2023-01-27T19:07:49.486Z,102176.19
2023-01-27T19:10:24.814Z,102182.88
2023-01-27T19:12:52.509Z,102182.88
2023-01-27T19:15:23.664Z,102184.50
2023-01-27T19:17:52.000Z,102186.06
2023-01-27T19:20:21.220Z,102190.38
2023-01-27T19:22:48.638Z,102190.91
2023-01-27T19:25:15.464Z,102184.72
2023-01-27T19:27:54.794Z,102187.13
2023-01-27T19:30:28.859Z,102190.88
2023-01-27T19:32:56.840Z,102182.28
2023-01-27T19:35:25.245Z,102188.19
2023-01-27T19:37:54.301Z,102196.47
2023-01-27T19:40:26.404Z,102195.94
2023-01-27T19:42:52.970Z,102192.16
2023-01-27T19:45:20.269Z,102195.09
2023-01-27T19:47:49.447Z,102200.44
2023-01-27T19:50:20.303Z,102205.50
2023-01-27T19:52:47.417Z,102201.19
2023-01-27T19:55:15.016Z,102202.03
2023-01-27T19:57:43.073Z,102203.06
2023-01-27T20:00:23.280Z,102203.09
2023-01-27T20:02:50.070Z,102210.03
2023-01-27T20:05:16.768Z,102206.56
2023-01-27T20:07:44.498Z,102202.78
2023-01-27T20:10:15.641Z,102204.66
2023-01-27T20:12:42.243Z,102208.66
2023-01-27T20:15:15.778Z,102204.88
2023-01-27T20:17:42.540Z,102209.94
2023-01-27T20:20:09.844Z,102209.94
2023-01-27T20:22:37.426Z,102222.47
2023-01-27T20:25:04.612Z,102218.47
2023-01-27T20:27:31.503Z,102213.91
2023-01-27T20:29:58.016Z,102221.41
2023-01-27T20:32:25.983Z,102221.91
2023-01-27T20:34:52.581Z,102212.03
2023-01-27T20:37:19.144Z,102215.44
2023-01-27T20:39:45.683Z,102225.09
2023-01-27T20:42:12.202Z,102226.44
2023-01-27T20:44:38.741Z,102224.00
2023-01-27T20:47:05.306Z,102218.91
2023-01-27T20:49:32.103Z,102223.72
2023-01-27T20:51:59.147Z,102225.03
2023-01-27T20:54:25.761Z,102229.81
2023-01-27T20:56:52.278Z,102226.88
2023-01-27T20:59:18.876Z,102232.75
2023-01-27T21:01:46.206Z,102225.78
2023-01-27T21:04:12.739Z,102236.47
2023-01-27T21:06:39.256Z,102234.88
2023-01-27T21:09:05.818Z,102232.16
2023-01-27T21:11:32.386Z,102230.00
2023-01-27T21:13:59.144Z,102238.03
2023-01-27T21:16:27.960Z,102236.13
2023-01-27T21:18:54.638Z,102244.16
2023-01-27T21:21:29.783Z,102231.34
2023-01-27T21:23:57.936Z,102236.13
2023-01-27T21:26:24.527Z,102233.41
2023-01-27T21:28:51.148Z,102229.97
2023-01-27T21:31:20.247Z,102232.06
2023-01-27T21:33:48.401Z,102229.66
2023-01-27T21:36:14.959Z,102231.28
2023-01-27T21:38:41.477Z,102234.72
2023-01-27T21:41:11.724Z,102235.31
2023-01-27T21:43:56.956Z,102235.00
2023-01-27T21:46:23.523Z,102234.72
2023-01-27T21:48:50.177Z,102234.19
2023-01-27T21:51:16.802Z,102234.72
2023-01-27T21:53:43.287Z,102236.09
2023-01-27T21:56:10.913Z,102230.75
2023-01-27T21:58:37.488Z,102231.03
2023-01-27T22:01:08.811Z,102233.41
2023-01-27T22:03:36.605Z,102229.72
2023-01-27T22:06:07.447Z,102234.78
2023-01-27T22:08:34.575Z,102236.91
2023-01-27T22:11:09.479Z,102235.06
2023-01-27T22:13:37.402Z,102235.31
2023-01-27T22:16:04.685Z,102244.41
2023-01-27T22:18:31.482Z,102239.84
2023-01-27T22:21:01.194Z,102238.22
2023-01-27T22:23:27.721Z,102235.00
2023-01-27T22:25:54.275Z,102235.31
2023-01-27T22:28:22.957Z,102237.97
2023-01-27T22:30:49.664Z,102226.41
2023-01-27T22:33:16.429Z,102224.53
2023-01-27T22:35:43.042Z,102236.28
2023-01-27T22:38:09.665Z,102232.50
2023-01-27T22:40:36.235Z,102223.41
2023-01-27T22:43:09.294Z,102227.69
2023-01-27T22:45:39.509Z,102226.66
2023-01-27T22:48:06.311Z,102227.16
2023-01-27T22:50:32.845Z,102222.00
2023-01-27T22:52:59.373Z,102227.56
2023-01-27T22:55:25.985Z,102225.63
2023-01-27T22:57:52.803Z,102229.06
2023-01-27T23:00:19.504Z,102232.75
2023-01-27T23:02:46.207Z,102225.50
2023-01-27T23:05:13.082Z,102217.97
2023-01-27T23:07:39.820Z,102232.34
2023-01-27T23:10:06.737Z,102221.84
2023-01-27T23:12:33.352Z,102220.47
2023-01-27T23:15:01.801Z,102218.31
2023-01-27T23:17:28.335Z,102212.09
2023-01-27T23:19:54.847Z,102206.47
2023-01-27T23:22:21.415Z,102205.66
2023-01-27T23:24:48.000Z,102210.94
2023-01-27T23:27:14.701Z,102202.88
2023-01-27T23:29:41.203Z,102200.22
2023-01-27T23:32:07.897Z,102197.00
2023-01-27T23:34:34.404Z,102194.25
2023-01-27T23:37:00.935Z,102188.59
2023-01-27T23:39:27.442Z,102195.25
2023-01-27T23:41:54.129Z,102194.91
2023-01-27T23:44:20.771Z,102194.31
2023-01-27T23:46:47.326Z,102196.13
2023-01-27T23:49:14.104Z,102197.66
2023-01-27T23:51:40.632Z,102200.81
2023-01-27T23:54:07.364Z,102198.06
2023-01-27T23:56:34.091Z,102203.91
2023-01-27T23:59:00.658Z,102209.41
